Terminal Aerodrome Forecast
Issued by NWS San Angelo, TX

Home | Current Version | Previous Version | Text Only | Print | Product List | Glossary On
Versions: 1 2 3 4 5 6 7 8 9 10 11 12 13
000
FTUS44 KSJT 241145
TAFABI
TAF
KABI 241145Z 2412/2512 16012KT P6SM SCT200
     FM241400 18016G23KT P6SM SCT050 BKN120
     FM242000 17015G22KT P6SM VCSH SCT050 BKN120
     FM250000 15012KT P6SM SCT050 OVC120=

USA.gov is the U.S. government's official web portal to all federal, state and local government web resources and services.